createdAt,value
2022-09-20T00:01:39.698Z,7.32
2022-09-20T00:04:08.612Z,7.28
2022-09-20T00:06:37.467Z,6.40
2022-09-20T00:09:07.706Z,6.70
2022-09-20T00:11:40.031Z,7.05
2022-09-20T00:14:09.742Z,6.97
2022-09-20T00:16:41.514Z,6.78
2022-09-20T00:19:16.457Z,6.72
2022-09-20T00:21:44.898Z,6.75
2022-09-20T00:24:14.881Z,7.07
2022-09-20T00:26:43.240Z,6.30
2022-09-20T00:29:13.399Z,7.07
2022-09-20T00:31:43.101Z,6.25
2022-09-20T00:34:30.399Z,7.00
2022-09-20T00:36:58.875Z,6.50
2022-09-20T00:39:29.249Z,6.38
2022-09-20T00:41:57.779Z,6.72
2022-09-20T00:45:00.323Z,6.68
2022-09-20T00:47:40.845Z,6.43
2022-09-20T00:50:18.985Z,6.28
2022-09-20T00:52:49.962Z,6.20
2022-09-20T00:55:21.399Z,6.90
2022-09-20T00:57:50.017Z,6.63
2022-09-20T01:00:19.021Z,6.60
2022-09-20T01:02:50.553Z,6.22
2022-09-20T01:05:20.676Z,6.50
2022-09-20T01:07:51.669Z,6.50
2022-09-20T01:10:21.423Z,6.50
2022-09-20T01:12:51.747Z,6.03
2022-09-20T01:15:23.470Z,5.88
2022-09-20T01:17:54.884Z,6.18
2022-09-20T01:20:27.042Z,6.40
2022-09-20T01:23:21.911Z,6.07
2022-09-20T01:26:20.237Z,6.07
2022-09-20T01:28:55.108Z,5.82
2022-09-20T01:31:27.014Z,6.20
2022-09-20T01:36:35.458Z,5.95
2022-09-20T01:39:12.048Z,5.53
2022-09-20T01:41:46.981Z,5.25
2022-09-20T01:44:22.026Z,5.72
2022-09-20T01:46:58.256Z,5.38
2022-09-20T01:49:36.389Z,5.63
2022-09-20T01:52:38.950Z,5.32
2022-09-20T01:55:50.279Z,5.90
2022-09-20T01:58:48.122Z,5.28
2022-09-20T02:01:54.740Z,5.32
2022-09-20T02:04:44.888Z,5.47
2022-09-20T02:07:33.472Z,5.13
2022-09-20T02:10:29.680Z,5.38
2022-09-20T02:13:03.218Z,5.43
2022-09-20T02:15:46.012Z,5.18
2022-09-20T02:18:35.005Z,5.78
2022-09-20T02:21:12.672Z,5.13
2022-09-20T02:23:50.403Z,4.95
2022-09-20T02:26:33.630Z,5.38
2022-09-20T02:29:11.746Z,5.35
2022-09-20T02:32:02.406Z,5.18
2022-09-20T02:34:52.708Z,5.20
2022-09-20T02:37:46.987Z,5.05
2022-09-20T02:40:28.425Z,5.15
2022-09-20T02:43:06.224Z,5.20
2022-09-20T02:45:43.231Z,4.75
2022-09-20T02:48:15.806Z,5.43
2022-09-20T02:50:55.745Z,4.85
2022-09-20T02:53:38.733Z,4.72
2022-09-20T02:56:16.426Z,5.43
2022-09-20T02:58:54.167Z,4.70
2022-09-20T03:01:44.583Z,5.20
2022-09-20T03:04:36.213Z,5.10
2022-09-20T03:07:17.219Z,4.88
2022-09-20T03:09:53.292Z,5.10
2022-09-20T03:12:35.016Z,5.40
2022-09-20T03:15:18.174Z,5.22
2022-09-20T03:17:53.728Z,5.13
2022-09-20T03:20:40.403Z,4.93
2022-09-20T03:23:23.569Z,4.85
2022-09-20T03:25:57.166Z,4.88
2022-09-20T03:28:39.913Z,4.97
2022-09-20T03:31:26.385Z,5.40
2022-09-20T03:34:04.539Z,4.82
2022-09-20T03:36:53.920Z,4.75
2022-09-20T03:39:42.351Z,4.43
2022-09-20T03:42:17.298Z,4.70
2022-09-20T03:45:03.759Z,5.03
2022-09-20T03:47:47.828Z,4.68
2022-09-20T03:50:37.975Z,4.35
2022-09-20T03:53:50.759Z,4.43
2022-09-20T03:56:42.644Z,4.50
2022-09-20T03:59:33.317Z,4.38
2022-09-20T04:02:18.421Z,4.40
2022-09-20T04:04:53.720Z,4.18
2022-09-20T04:07:28.311Z,4.47
2022-09-20T04:10:08.099Z,4.43
2022-09-20T04:12:51.120Z,4.30
2022-09-20T04:15:32.614Z,3.97
2022-09-20T04:18:09.527Z,4.35
2022-09-20T04:20:46.448Z,4.22
2022-09-20T04:23:32.391Z,4.07
2022-09-20T04:26:04.755Z,4.20
2022-09-20T04:31:27.273Z,3.63
2022-09-20T04:33:58.975Z,4.03
2022-09-20T04:36:57.908Z,4.32
2022-09-20T04:39:42.762Z,4.20
2022-09-20T04:42:45.296Z,4.13
2022-09-20T04:45:55.447Z,4.22
2022-09-20T04:49:03.536Z,4.50
2022-09-20T04:52:01.757Z,5.25
2022-09-20T04:54:57.079Z,7.43
2022-09-20T04:57:54.143Z,10.32
2022-09-20T05:00:24.961Z,12.73
2022-09-20T05:03:17.385Z,11.27
2022-09-20T05:06:30.289Z,7.60
2022-09-20T05:09:23.078Z,6.20
2022-09-20T05:12:03.937Z,5.50
2022-09-20T05:14:59.153Z,5.78
2022-09-20T05:17:52.844Z,6.35
2022-09-20T05:20:51.413Z,5.55
2022-09-20T05:23:52.144Z,6.13
2022-09-20T05:26:35.780Z,5.20
2022-09-20T05:29:12.380Z,4.85
2022-09-20T05:31:48.896Z,4.47
2022-09-20T05:34:26.731Z,3.95
2022-09-20T05:37:02.822Z,3.75
2022-09-20T05:39:38.765Z,3.78
2022-09-20T05:42:21.336Z,4.53
2022-09-20T05:45:03.481Z,3.97
2022-09-20T05:47:41.846Z,4.00
2022-09-20T05:50:34.600Z,3.42
2022-09-20T05:53:30.788Z,4.05
2022-09-20T05:56:10.743Z,3.30
2022-09-20T05:58:55.797Z,3.67
2022-09-20T06:01:29.705Z,3.67
2022-09-20T06:04:10.561Z,3.42
2022-09-20T06:06:50.123Z,3.58
2022-09-20T06:09:43.758Z,4.07
2022-09-20T06:12:41.254Z,30.83
2022-09-20T06:15:21.941Z,16.27
2022-09-20T06:17:58.814Z,15.27
2022-09-20T06:20:35.369Z,12.63
2022-09-20T06:23:06.888Z,8.13
2022-09-20T06:25:43.668Z,12.77
2022-09-20T06:28:18.107Z,13.55
2022-09-20T06:30:51.465Z,17.30
2022-09-20T06:33:22.671Z,17.85
2022-09-20T06:35:59.011Z,14.00
2022-09-20T06:39:05.875Z,27.48
2022-09-20T06:41:36.901Z,26.55
2022-09-20T06:44:07.884Z,14.45
2022-09-20T06:46:38.885Z,10.68
2022-09-20T06:49:10.030Z,18.00
2022-09-20T06:51:40.491Z,32.38
2022-09-20T06:54:16.078Z,12.07
2022-09-20T06:56:47.403Z,23.20
2022-09-20T06:59:16.658Z,22.98
2022-09-20T07:01:46.760Z,24.17
2022-09-20T07:04:15.463Z,16.15
2022-09-20T07:06:44.465Z,15.23
2022-09-20T07:09:13.795Z,13.35
2022-09-20T07:11:43.269Z,13.05
2022-09-20T07:14:12.491Z,12.43
2022-09-20T07:16:42.233Z,14.43
2022-09-20T07:19:12.334Z,10.77
2022-09-20T07:21:41.084Z,9.27
2022-09-20T07:24:09.627Z,7.97
2022-09-20T07:26:39.267Z,7.80
2022-09-20T07:29:08.155Z,11.40
2022-09-20T07:31:36.923Z,11.57
2022-09-20T07:34:06.345Z,8.07
2022-09-20T07:36:37.508Z,9.82
2022-09-20T07:39:06.452Z,12.82
2022-09-20T07:41:35.492Z,10.23
2022-09-20T07:44:18.155Z,8.48
2022-09-20T07:46:48.224Z,6.93
2022-09-20T07:49:17.385Z,8.48
2022-09-20T07:51:47.325Z,7.60
2022-09-20T07:54:16.402Z,8.85
2022-09-20T07:56:47.431Z,10.05
2022-09-20T07:59:16.877Z,9.48
2022-09-20T08:01:46.090Z,8.10
2022-09-20T08:04:15.706Z,8.77
2022-09-20T08:06:47.322Z,7.75
2022-09-20T08:09:17.759Z,5.85
2022-09-20T08:11:47.776Z,6.35
2022-09-20T08:14:19.467Z,5.82
2022-09-20T08:16:50.651Z,6.03
2022-09-20T08:19:21.113Z,5.68
2022-09-20T08:21:53.938Z,5.60
2022-09-20T08:24:26.376Z,5.70
2022-09-20T08:26:55.876Z,5.20
2022-09-20T08:29:25.378Z,5.13
2022-09-20T08:31:58.509Z,4.82
2022-09-20T08:34:27.996Z,5.28
2022-09-20T08:36:58.265Z,4.72
2022-09-20T08:42:28.048Z,4.22
2022-09-20T08:45:00.199Z,4.67
2022-09-20T08:47:32.362Z,4.15
2022-09-20T08:50:17.415Z,4.28
2022-09-20T08:52:50.147Z,4.25
2022-09-20T08:55:21.079Z,4.97
2022-09-20T08:57:52.318Z,4.57
2022-09-20T09:00:24.024Z,4.07
2022-09-20T09:02:55.511Z,5.43
2022-09-20T09:05:37.429Z,5.68
2022-09-20T09:08:16.460Z,5.28
2022-09-20T09:10:54.379Z,4.38
2022-09-20T09:13:28.937Z,4.18
2022-09-20T09:16:01.821Z,3.67
2022-09-20T09:18:37.543Z,3.63
2022-09-20T09:21:08.901Z,3.55
2022-09-20T09:23:48.480Z,3.13
2022-09-20T09:26:22.044Z,3.25
2022-09-20T09:29:10.486Z,3.33
2022-09-20T09:31:40.161Z,2.45
2022-09-20T09:34:25.516Z,3.03
2022-09-20T09:36:55.979Z,3.05
2022-09-20T09:39:30.254Z,2.85
2022-09-20T09:42:01.557Z,3.25
2022-09-20T09:44:33.361Z,4.25
2022-09-20T09:47:03.147Z,2.80
2022-09-20T09:49:36.640Z,2.70
2022-09-20T09:52:14.856Z,2.80
2022-09-20T09:54:50.745Z,2.90
2022-09-20T09:57:34.053Z,2.80
2022-09-20T10:00:20.477Z,2.55
2022-09-20T10:03:32.704Z,2.63
2022-09-20T10:06:17.149Z,3.03
2022-09-20T10:08:59.089Z,2.90
2022-09-20T10:11:43.621Z,3.00
2022-09-20T10:14:29.977Z,2.90
2022-09-20T10:17:13.637Z,2.58
2022-09-20T10:19:57.413Z,2.70
2022-09-20T10:22:39.196Z,2.92
2022-09-20T10:25:18.310Z,2.67
2022-09-20T10:28:03.200Z,3.00
2022-09-20T10:30:44.342Z,2.67
2022-09-20T10:33:25.167Z,2.40
2022-09-20T10:36:14.212Z,2.70
2022-09-20T10:38:53.301Z,2.47
2022-09-20T10:42:04.992Z,2.10
2022-09-20T10:44:48.047Z,2.40
2022-09-20T10:47:20.204Z,2.30
2022-09-20T10:50:02.402Z,1.80
2022-09-20T10:52:54.218Z,2.00
2022-09-20T10:55:36.900Z,1.80
2022-09-20T10:58:30.735Z,2.05
2022-09-20T11:01:12.518Z,2.50
2022-09-20T11:04:21.268Z,1.83
2022-09-20T11:07:00.650Z,2.10
2022-09-20T11:09:41.017Z,2.15
2022-09-20T11:12:16.927Z,1.92
2022-09-20T11:14:53.744Z,2.38
2022-09-20T11:17:28.670Z,2.30
2022-09-20T11:20:07.248Z,2.10
2022-09-20T11:22:44.334Z,2.28
2022-09-20T11:25:25.004Z,1.95
2022-09-20T11:28:02.878Z,2.53
2022-09-20T11:30:35.211Z,2.38
2022-09-20T11:33:16.473Z,2.53
2022-09-20T11:35:49.819Z,2.38
2022-09-20T11:38:25.025Z,2.20
2022-09-20T11:40:58.033Z,1.88
2022-09-20T11:43:31.427Z,2.20
2022-09-20T11:46:05.228Z,2.45
2022-09-20T11:48:42.706Z,2.58
2022-09-20T11:51:45.686Z,2.63
2022-09-20T11:54:46.061Z,2.13
2022-09-20T11:57:16.922Z,2.58
2022-09-20T11:59:54.675Z,2.88
2022-09-20T12:02:28.635Z,2.53
2022-09-20T12:05:00.077Z,2.83
2022-09-20T12:07:35.210Z,3.03
2022-09-20T12:10:21.902Z,2.45
2022-09-20T12:12:56.358Z,2.63
2022-09-20T12:15:31.735Z,2.55
2022-09-20T12:18:33.266Z,2.58
2022-09-20T12:21:17.153Z,2.42
2022-09-20T12:24:19.158Z,2.22
2022-09-20T12:26:57.098Z,2.05
2022-09-20T12:30:07.627Z,2.30
2022-09-20T12:33:03.920Z,2.22
2022-09-20T12:35:58.792Z,2.30
2022-09-20T12:38:48.861Z,2.60
2022-09-20T12:41:27.805Z,2.63
2022-09-20T12:44:26.484Z,2.90
2022-09-20T12:47:01.035Z,3.00
2022-09-20T12:49:55.145Z,2.70
2022-09-20T12:53:04.521Z,2.63
2022-09-20T12:55:56.765Z,3.55
2022-09-20T12:58:29.919Z,3.30
2022-09-20T13:01:32.430Z,3.60
2022-09-20T13:04:41.108Z,3.72
2022-09-20T13:07:38.808Z,3.40
2022-09-20T13:10:37.718Z,3.40
2022-09-20T13:13:22.973Z,2.70
2022-09-20T13:15:54.993Z,2.50
2022-09-20T13:18:26.590Z,2.80
2022-09-20T13:20:58.119Z,2.60
2022-09-20T13:23:30.795Z,2.40
2022-09-20T13:26:00.004Z,2.83
2022-09-20T13:28:54.555Z,3.15
2022-09-20T13:31:43.462Z,2.00
2022-09-20T13:34:32.892Z,2.20
2022-09-20T13:37:01.890Z,2.28
2022-09-20T13:39:38.307Z,2.35
2022-09-20T13:42:22.117Z,2.22
2022-09-20T13:44:54.701Z,2.20
2022-09-20T13:47:25.823Z,1.90
2022-09-20T13:50:48.020Z,2.20
2022-09-20T13:53:40.669Z,1.83
2022-09-20T13:56:17.097Z,1.75
2022-09-20T13:58:46.092Z,1.58
2022-09-20T14:01:27.076Z,1.27
2022-09-20T14:03:58.099Z,1.23
2022-09-20T14:06:29.974Z,1.40
2022-09-20T14:09:08.381Z,1.05
2022-09-20T14:11:41.568Z,1.35
2022-09-20T14:14:12.730Z,1.17
2022-09-20T14:16:49.501Z,1.30
2022-09-20T14:19:21.870Z,1.13
2022-09-20T14:21:51.781Z,1.40
2022-09-20T14:24:33.290Z,1.50
2022-09-20T14:27:07.568Z,1.83
2022-09-20T14:29:41.853Z,1.52
2022-09-20T14:32:25.697Z,1.80
2022-09-20T14:35:02.320Z,2.00
2022-09-20T14:37:35.820Z,1.90
2022-09-20T14:40:08.301Z,1.60
2022-09-20T14:42:43.188Z,1.70
2022-09-20T14:45:23.762Z,1.33
2022-09-20T14:48:10.498Z,1.80
2022-09-20T14:50:41.901Z,1.88
2022-09-20T14:53:31.061Z,1.92
2022-09-20T14:56:08.511Z,2.03
2022-09-20T14:59:18.850Z,2.10
2022-09-20T15:01:57.029Z,2.10
2022-09-20T15:04:29.685Z,2.30
2022-09-20T15:07:02.105Z,2.22
2022-09-20T15:09:32.679Z,2.22
2022-09-20T15:12:05.059Z,1.88
2022-09-20T15:14:37.785Z,1.95
2022-09-20T15:17:08.525Z,1.88
2022-09-20T15:19:39.572Z,2.08
2022-09-20T15:22:11.768Z,2.47
2022-09-20T15:24:41.355Z,3.13
2022-09-20T15:27:11.698Z,3.38
2022-09-20T15:29:40.846Z,3.72
2022-09-20T15:32:13.389Z,3.58
2022-09-20T15:34:44.016Z,4.55
2022-09-20T15:37:13.324Z,5.47
2022-09-20T15:39:42.771Z,6.05
2022-09-20T15:42:12.869Z,5.97
2022-09-20T15:44:42.204Z,5.47
2022-09-20T15:47:15.422Z,6.45
2022-09-20T15:49:46.951Z,7.65
2022-09-20T15:52:17.143Z,7.63
2022-09-20T15:54:46.461Z,7.45
2022-09-20T15:57:17.670Z,7.65
2022-09-20T15:59:47.038Z,6.90
2022-09-20T16:02:17.255Z,7.40
2022-09-20T16:04:47.334Z,8.15
2022-09-20T16:07:17.818Z,7.88
2022-09-20T16:09:46.845Z,8.68
2022-09-20T16:12:16.634Z,9.02
2022-09-20T16:14:45.857Z,9.02
2022-09-20T16:17:15.007Z,10.65
2022-09-20T16:19:44.432Z,9.95
2022-09-20T16:22:15.049Z,9.85
2022-09-20T16:24:43.837Z,8.73
2022-09-20T16:27:18.752Z,7.10
2022-09-20T16:29:47.753Z,5.03
2022-09-20T16:32:17.876Z,5.18
2022-09-20T16:34:46.764Z,3.97
2022-09-20T16:37:17.202Z,3.45
2022-09-20T16:39:45.784Z,3.38
2022-09-20T16:42:15.531Z,3.38
2022-09-20T16:44:44.664Z,2.50
2022-09-20T16:47:18.494Z,2.17
2022-09-20T16:49:47.409Z,2.13
2022-09-20T16:52:18.080Z,2.20
2022-09-20T16:54:47.726Z,2.17
2022-09-20T16:57:16.794Z,1.83
2022-09-20T16:59:46.749Z,2.08
2022-09-20T17:02:15.773Z,1.50
2022-09-20T17:04:44.918Z,1.75
2022-09-20T17:07:13.665Z,1.58
2022-09-20T17:09:43.765Z,1.42
2022-09-20T17:12:13.866Z,1.50
2022-09-20T17:14:42.455Z,2.20
2022-09-20T17:17:11.181Z,1.20
2022-09-20T17:19:40.082Z,1.10
2022-09-20T17:22:09.588Z,1.20
2022-09-20T17:24:38.447Z,1.10
2022-09-20T17:27:09.034Z,0.80
2022-09-20T17:29:38.138Z,0.90
2022-09-20T17:32:07.413Z,0.90
2022-09-20T17:34:36.449Z,0.80
2022-09-20T17:37:05.720Z,0.90
2022-09-20T17:39:34.437Z,1.02
2022-09-20T17:42:02.933Z,0.90
2022-09-20T17:44:36.937Z,0.68
2022-09-20T17:47:06.878Z,0.80
2022-09-20T17:49:37.761Z,0.70
2022-09-20T17:52:08.538Z,0.95
2022-09-20T17:54:37.464Z,1.20
2022-09-20T17:57:06.151Z,2.95
2022-09-20T17:59:36.889Z,2.10
2022-09-20T18:02:06.133Z,2.00
2022-09-20T18:04:34.787Z,1.90
2022-09-20T18:07:04.280Z,1.95
2022-09-20T18:09:32.825Z,2.10
2022-09-20T18:12:02.165Z,2.30
2022-09-20T18:14:32.819Z,2.05
2022-09-20T18:17:02.997Z,2.28
2022-09-20T18:19:34.417Z,1.90
2022-09-20T18:22:04.998Z,2.38
2022-09-20T18:28:21.418Z,3.00
2022-09-20T18:31:00.604Z,3.10
2022-09-20T18:33:34.235Z,3.22
2022-09-20T18:36:04.807Z,2.97
2022-09-20T18:38:33.972Z,2.85
2022-09-20T18:41:03.301Z,2.78
2022-09-20T18:43:32.767Z,2.47
2022-09-20T18:46:01.821Z,2.40
2022-09-20T18:52:05.126Z,2.45
2022-09-20T18:54:34.239Z,2.50
2022-09-20T18:57:03.848Z,2.00
2022-09-20T18:59:32.813Z,2.35
2022-09-20T19:02:32.165Z,2.10
2022-09-20T19:05:19.868Z,1.83
2022-09-20T19:08:02.825Z,1.90
2022-09-20T19:10:41.060Z,2.20
2022-09-20T19:13:24.739Z,1.83
2022-09-20T19:16:13.716Z,1.90
2022-09-20T19:19:08.743Z,1.80
2022-09-20T19:21:47.947Z,2.20
2022-09-20T19:24:33.237Z,2.03
2022-09-20T19:27:02.211Z,2.50
2022-09-20T19:29:32.072Z,2.92
2022-09-20T19:32:03.302Z,2.63
2022-09-20T19:34:33.492Z,2.63
2022-09-20T19:37:18.944Z,2.75
2022-09-20T19:40:06.388Z,2.60
2022-09-20T20:27:10.729Z,2.78
2022-09-20T20:29:39.444Z,2.53
2022-09-20T20:32:08.163Z,2.53
2022-09-20T20:34:37.303Z,2.60
2022-09-20T20:37:06.404Z,2.63
2022-09-20T20:39:36.126Z,2.80
2022-09-20T20:42:06.512Z,2.75
2022-09-20T20:44:36.520Z,2.72
2022-09-20T20:47:07.543Z,2.80
2022-09-20T20:49:36.771Z,2.88
2022-09-20T20:52:06.248Z,3.22
2022-09-20T20:54:35.688Z,3.20
2022-09-20T20:57:05.031Z,3.10
2022-09-20T20:59:34.415Z,3.03
2022-09-20T21:02:07.938Z,2.90
2022-09-20T21:04:37.165Z,3.13
2022-09-20T21:07:05.960Z,3.08
2022-09-20T21:09:34.504Z,3.22
2022-09-20T21:12:04.333Z,2.97
2022-09-20T21:14:34.126Z,3.67
2022-09-20T21:17:04.774Z,2.90
2022-09-20T21:19:33.341Z,3.20
2022-09-20T21:22:02.429Z,3.47
2022-09-20T21:24:31.926Z,3.20
2022-09-20T21:27:00.393Z,3.42
2022-09-20T21:29:29.071Z,3.38
2022-09-20T21:31:58.020Z,3.17
2022-09-20T21:34:28.068Z,3.25
2022-09-20T21:36:57.347Z,3.42
2022-09-20T21:39:26.934Z,3.25
2022-09-20T21:41:57.631Z,3.15
2022-09-20T21:44:25.996Z,3.15
2022-09-20T21:46:54.906Z,3.40
2022-09-20T21:49:23.692Z,3.45
2022-09-20T21:51:53.962Z,3.10
2022-09-20T21:54:23.370Z,3.53
2022-09-20T21:56:55.859Z,2.70
2022-09-20T21:59:24.919Z,2.85
2022-09-20T22:01:54.346Z,3.33
2022-09-20T22:04:23.999Z,3.30
2022-09-20T22:06:54.726Z,2.95
2022-09-20T22:09:24.295Z,3.50
2022-09-20T22:11:53.907Z,3.10
2022-09-20T22:14:24.476Z,2.90
2022-09-20T22:16:53.908Z,3.28
2022-09-20T22:19:22.951Z,2.95
2022-09-20T22:21:53.943Z,3.10
2022-09-20T22:24:23.019Z,3.47
2022-09-20T22:26:53.977Z,3.33
2022-09-20T22:29:23.116Z,3.58
2022-09-20T22:31:52.567Z,3.22
2022-09-20T22:34:23.959Z,3.13
2022-09-20T22:36:54.441Z,3.38
2022-09-20T22:39:23.380Z,3.58
2022-09-20T22:41:53.015Z,3.38
2022-09-20T22:44:22.956Z,3.50
2022-09-20T22:46:52.223Z,3.25
2022-09-20T22:49:21.201Z,3.55
2022-09-20T22:51:50.161Z,3.22
2022-09-20T22:54:20.782Z,3.42
2022-09-20T22:56:49.742Z,3.40
2022-09-20T22:59:18.843Z,3.72
2022-09-20T23:01:49.169Z,3.28
2022-09-20T23:04:20.041Z,3.22
2022-09-20T23:06:52.052Z,4.03
2022-09-20T23:09:23.683Z,3.50
2022-09-20T23:11:52.820Z,3.72
2022-09-20T23:14:24.304Z,3.80
2022-09-20T23:16:53.298Z,3.20
2022-09-20T23:19:22.336Z,3.67
2022-09-20T23:21:51.805Z,3.70
2022-09-20T23:24:21.708Z,3.90
2022-09-20T23:26:51.189Z,3.42
2022-09-20T23:29:19.796Z,3.55
2022-09-20T23:31:49.612Z,3.72
2022-09-20T23:34:18.843Z,3.50
2022-09-20T23:36:48.062Z,3.90
2022-09-20T23:39:17.221Z,3.30
2022-09-20T23:41:51.040Z,4.03
2022-09-20T23:44:20.886Z,3.45
2022-09-20T23:46:49.587Z,4.00
2022-09-20T23:49:18.218Z,3.75
2022-09-20T23:51:47.152Z,4.05
2022-09-20T23:54:15.954Z,3.85
2022-09-20T23:56:46.302Z,4.07
2022-09-20T23:59:15.375Z,3.92
